Swift Current Airport, Saskatchewan

Past 24 Hour Conditions

Date / Time
(CST)
Conditions Temp
(°F)
Humidity
(%)
Dew Point
(°F)
Wind
(mph)
Pressure
(inches)
Visibility
(miles)
24 October 2014
7:00 Clear 45   59 32 W 20 gust 31 29.8 10
6:00 Clear 48 55 33 WSW 28 gust 36 29.7 10
5:00 Clear 49 60 35 WSW 25 gust 31 29.7 10
4:00 Clear 53 47 33 WSW 29 gust 36 29.7 10
3:00 Mainly Clear 55 38 29 WSW 28 gust 39 29.7 10
2:00 Mostly Cloudy 52 63 40 SW 17 29.7 10
1:00 Mostly Cloudy 55 52 38 SW 22 gust 29 29.7 10
00:00 Cloudy 58 46 37 WSW 23 gust 33 29.6 10
23 October 2014
23:00 Mostly Cloudy 52 66 41 SW 18 gust 24 29.7 10
22:00 Cloudy 52 66 41 SW 22 29.7 10
21:00 Mostly Cloudy 52 66 41 SW 15 gust 21 29.7 10
20:00 Mainly Clear 52 65 41 SSW 17 29.7 10
19:00 Mainly Clear 51 64 39 SSW 16 29.7 10
18:00 Mainly Sunny 56 48 37 SW 14 29.7 10
17:00 Cloudy 60 39 35 SW 20 gust 29 29.6 10
16:00 Partly Cloudy 61   41 37 WSW 25 gust 33 29.6 10
15:00 Sunny 60 47 39 WSW 20 gust 26 29.6 10
14:00 Partly Cloudy 57 56 42 SW 17 29.7 10
13:00 Mainly Sunny 58 54 41 SW 17 gust 24 29.7 10
12:00 Mostly Cloudy 55 56 40 SW 17 gust 23 29.7 10
11:00 Mostly Cloudy 51 63 39 SSW 13 29.7 10
10:00 Partly Cloudy 49 66 38 SSW 16 29.7 10
9:00 Sunny 47 67 37 SSW 16 29.7 10
8:00 Sunny 46 68 36 SW 18 29.7 10
7:00 Mainly Clear 46 69 36 SSW 18 29.7 10
N/A Not available
↑ Highest temperature
↓ Lowest temperature

If you require additional historical weather information, please visit Climate Data Online.

Date modified: